Time;durP1;ratioP1;P1;durP2;ratioP2;P2;SDS_P1;SDS_P2;PMS_P1;PMS_P2;Temp;Humidity;BMP_temperature;BMP_pressure;BME280_temperature;BME280_humidity;BME280_pressure;Samples;Min_cycle;Max_cycle;Signal;HPM_P1;HPM_P2
2022/02/04 00:01:28;;;;;;;8.60;5.43;;;6.50;99.90;;;;;;5088802;28;20089;-67
2022/02/04 00:06:45;;;;;;;10.70;6.03;;;6.40;99.90;;;;;;5041851;28;20152;-66
2022/02/04 00:09:16;;;;;;;9.48;5.95;;;6.40;99.90;;;;;;5023816;28;20397;-67
2022/02/04 00:28:36;;;;;;;12.85;7.70;;;6.50;99.90;;;;;;5044094;28;20564;-66
2022/02/04 00:33:49;;;;;;;12.18;7.88;;;6.40;99.90;;;;;;4998501;28;20061;-67
2022/02/04 00:36:25;;;;;;;12.27;7.90;;;6.40;99.90;;;;;;5044888;28;20064;-67
2022/02/04 00:38:55;;;;;;;11.77;7.22;;;6.30;99.90;;;;;;5044908;28;20486;-68
2022/02/04 00:41:27;;;;;;;13.48;7.82;;;6.30;99.90;;;;;;5057147;28;20146;-67
2022/02/04 00:43:57;;;;;;;14.23;8.43;;;6.30;99.90;;;;;;5095363;28;20043;-66
2022/02/04 00:46:31;;;;;;;12.93;8.95;;;6.30;99.90;;;;;;5105355;28;20147;-67
2022/02/04 00:52:34;;;;;;;14.93;9.43;;;6.30;99.90;;;;;;5067208;28;20032;-66
2022/02/04 00:55:12;;;;;;;16.75;9.30;;;6.30;99.90;;;;;;5089862;28;20044;-68
2022/02/04 00:57:50;;;;;;;16.98;10.23;;;6.30;99.90;;;;;;5098988;28;20059;-67
2022/02/04 01:27:37;;;;;;;22.58;11.98;;;5.90;99.90;;;;;;5106239;28;20284;-66
2022/02/04 01:30:16;;;;;;;20.88;11.75;;;5.90;99.90;;;;;;5102175;28;20047;-67
2022/02/04 01:32:44;;;;;;;18.95;10.73;;;5.90;99.90;;;;;;5096268;28;20051;-67
2022/02/04 01:35:12;;;;;;;18.00;10.15;;;5.90;99.90;;;;;;5099496;28;20062;-67
2022/02/04 01:37:39;;;;;;;17.52;10.77;;;5.90;99.90;;;;;;5109497;28;20342;-68
2022/02/04 01:40:07;;;;;;;17.40;10.85;;;5.90;99.90;;;;;;5097616;28;20558;-64
2022/02/04 01:42:35;;;;;;;18.00;10.77;;;5.90;99.90;;;;;;5098652;28;20056;-66
2022/02/04 01:45:04;;;;;;;17.35;10.27;;;5.90;99.90;;;;;;5110693;28;20039;-68
2022/02/04 01:47:31;;;;;;;14.68;9.65;;;5.80;99.90;;;;;;5111234;28;20620;-67
2022/02/04 01:49:59;;;;;;;15.63;9.85;;;5.90;99.90;;;;;;5106828;28;20126;-67
2022/02/04 01:52:27;;;;;;;17.48;10.52;;;5.90;99.90;;;;;;5101073;28;20028;-67
2022/02/04 01:54:55;;;;;;;17.08;10.68;;;5.80;99.90;;;;;;5107932;28;20462;-68
2022/02/04 01:57:22;;;;;;;16.58;10.85;;;5.90;99.90;;;;;;5094905;28;20067;-68
2022/02/04 01:59:49;;;;;;;19.25;11.75;;;5.90;99.90;;;;;;5110146;28;20044;-67
2022/02/04 02:02:16;;;;;;;16.25;10.00;;;5.90;99.90;;;;;;5089930;28;20040;-67
2022/02/04 02:04:44;;;;;;;17.42;10.48;;;5.80;99.90;;;;;;5110203;28;20052;-67
2022/02/04 02:07:17;;;;;;;18.52;10.20;;;5.80;99.90;;;;;;5110249;28;20092;-66
2022/02/04 02:10:09;;;;;;;20.25;11.23;;;5.80;99.90;;;;;;5110147;28;20416;-66
2022/02/04 02:12:39;;;;;;;21.15;10.15;;;5.80;99.90;;;;;;5109993;28;20561;-66
2022/02/04 02:15:19;;;;;;;18.80;10.98;;;5.80;99.90;;;;;;5110629;28;20046;-66
2022/02/04 02:41:03;;;;;;;22.35;12.93;;;5.60;99.90;;;;;;5026851;28;20049;-67
2022/02/04 02:59:25;;;;;;;19.83;10.48;;;5.50;99.90;;;;;;5012540;28;20292;-66
2022/02/04 03:01:52;;;;;;;19.33;11.15;;;5.40;99.90;;;;;;5024327;28;20136;-66
2022/02/04 03:04:20;;;;;;;19.20;10.80;;;5.30;99.90;;;;;;5010462;28;20052;-67
2022/02/04 03:06:48;;;;;;;19.23;11.73;;;5.30;99.90;;;;;;5009081;28;20038;-67
2022/02/04 03:09:17;;;;;;;18.85;11.32;;;5.40;99.90;;;;;;5011059;28;20810;-67
2022/02/04 03:11:44;;;;;;;18.02;10.80;;;5.30;99.90;;;;;;4992211;28;20056;-67
2022/02/04 03:14:11;;;;;;;17.15;10.35;;;5.30;99.90;;;;;;5023532;28;20186;-67
2022/02/04 03:16:39;;;;;;;20.48;10.38;;;5.30;99.90;;;;;;5073420;28;20059;-66
2022/02/04 03:19:08;;;;;;;19.48;10.90;;;5.30;99.90;;;;;;5091628;28;20479;-66
2022/02/04 03:21:40;;;;;;;18.00;10.73;;;5.30;99.90;;;;;;5110339;28;20484;-66
2022/02/04 03:24:12;;;;;;;20.27;10.68;;;5.30;99.90;;;;;;5103094;28;20051;-67
2022/02/04 03:26:56;;;;;;;17.50;10.15;;;5.30;99.90;;;;;;5097023;28;20139;-65
2022/02/04 03:29:28;;;;;;;19.40;11.15;;;5.30;99.90;;;;;;5107011;28;20048;-66
2022/02/04 03:32:02;;;;;;;;;;;5.20;99.90;;;;;;5098820;28;20043;-67
2022/02/04 03:34:30;;;;;;;21.95;11.88;;;5.20;99.90;;;;;;5109006;28;19920;-67
2022/02/04 03:36:57;;;;;;;17.35;10.88;;;5.20;99.90;;;;;;5097025;28;20044;-68
2022/02/04 03:39:24;;;;;;;17.85;10.77;;;5.20;99.90;;;;;;5107208;28;20043;-66
2022/02/04 03:41:52;;;;;;;23.00;11.88;;;5.20;99.90;;;;;;5109148;28;20548;-67
2022/02/04 03:44:19;;;;;;;17.40;10.45;;;5.20;99.90;;;;;;5108524;28;20078;-67
2022/02/04 03:46:46;;;;;;;18.98;10.55;;;5.20;99.90;;;;;;5109611;28;20043;-67
2022/02/04 03:49:14;;;;;;;18.08;10.98;;;5.20;99.90;;;;;;5107341;28;20502;-67
2022/02/04 03:51:41;;;;;;;18.27;10.27;;;5.30;99.90;;;;;;5108132;28;20541;-67
2022/02/04 03:54:08;;;;;;;17.75;10.15;;;5.30;99.90;;;;;;5108439;28;20439;-67
2022/02/04 03:56:36;;;;;;;17.20;10.52;;;5.30;99.90;;;;;;5109044;28;20051;-68
2022/02/04 03:59:04;;;;;;;20.70;10.43;;;5.20;99.90;;;;;;5108865;28;20035;-67
2022/02/04 04:01:31;;;;;;;16.98;9.93;;;5.20;99.90;;;;;;5107597;28;20425;-68
2022/02/04 04:03:58;;;;;;;18.42;10.55;;;5.20;99.90;;;;;;5094752;28;20088;-68
2022/02/04 04:06:26;;;;;;;19.60;10.00;;;5.20;99.90;;;;;;5094851;28;20040;-67
2022/02/04 04:08:54;;;;;;;18.55;9.88;;;5.20;99.90;;;;;;5099521;28;20055;-67
2022/02/04 04:11:22;;;;;;;18.23;9.68;;;5.20;99.90;;;;;;5069085;28;20118;-67
2022/02/04 04:13:50;;;;;;;17.02;10.10;;;5.20;99.90;;;;;;5104278;28;20510;-68
2022/02/04 04:16:19;;;;;;;15.63;8.95;;;5.30;99.90;;;;;;5101906;28;20043;-67
2022/02/04 04:18:46;;;;;;;15.43;9.00;;;5.20;99.90;;;;;;5100773;28;20044;-67
2022/02/04 04:21:14;;;;;;;14.50;8.70;;;5.30;99.90;;;;;;5088104;28;20051;-67
2022/02/04 04:23:41;;;;;;;18.10;9.80;;;5.30;99.90;;;;;;5106403;28;20466;-67
2022/02/04 04:26:08;;;;;;;17.35;9.60;;;5.30;99.90;;;;;;5104847;28;20154;-68
2022/02/04 04:28:35;;;;;;;15.68;9.70;;;5.30;99.90;;;;;;5108228;28;20092;-68
2022/02/04 04:31:03;;;;;;;14.10;8.32;;;5.40;99.90;;;;;;5107324;28;20043;-68
2022/02/04 04:33:30;;;;;;;15.68;9.20;;;5.40;99.90;;;;;;5106385;28;20046;-67
2022/02/04 04:35:57;;;;;;;15.80;9.65;;;5.40;99.90;;;;;;5106603;28;20043;-68
2022/02/04 04:38:37;;;;;;;17.15;8.65;;;5.40;99.90;;;;;;5107009;28;20427;-67
2022/02/04 04:41:15;;;;;;;16.25;8.55;;;5.40;99.90;;;;;;5071218;28;20147;-68
2022/02/04 04:44:06;;;;;;;18.17;9.82;;;5.30;99.90;;;;;;5105995;28;20047;-68
2022/02/04 05:25:43;;;;;;;15.35;9.77;;;5.30;99.90;;;;;;5107090;28;20051;-67
2022/02/04 05:26:02;;;;;;;17.15;9.63;;;5.20;99.90;;;;;;5024879;28;20546;-67
2022/02/04 05:31:00;;;;;;;18.58;10.23;;;5.40;99.90;;;;;;5009783;28;20140;-68
2022/02/04 05:33:28;;;;;;;16.30;9.50;;;5.30;99.90;;;;;;5028727;28;20050;-65
2022/02/04 05:35:55;;;;;;;19.77;9.88;;;5.30;99.90;;;;;;5010360;28;20077;-66
2022/02/04 05:38:23;;;;;;;16.40;9.48;;;5.30;99.90;;;;;;5032138;28;20042;-67
2022/02/04 05:40:52;;;;;;;18.85;10.32;;;5.30;99.90;;;;;;5028486;28;20084;-66
2022/02/04 05:43:23;;;;;;;17.20;9.55;;;5.30;99.90;;;;;;5032773;28;20084;-66
2022/02/04 05:46:00;;;;;;;16.63;9.77;;;5.30;99.90;;;;;;5027592;28;20072;-66
2022/02/04 05:48:29;;;;;;;17.95;9.98;;;5.30;99.90;;;;;;5030143;28;20059;-66
2022/02/04 05:56:44;;;;;;;12.20;6.93;;;5.20;99.90;;;;;;5086280;28;20040;-67
2022/02/04 06:04:15;;;;;;;16.42;9.25;;;5.20;99.90;;;;;;5096804;28;20044;-65
2022/02/04 06:07:04;;;;;;;16.58;9.35;;;5.20;99.90;;;;;;5109165;28;20055;-66
2022/02/04 06:13:15;;;;;;;19.13;9.88;;;5.20;99.90;;;;;;5095451;28;20044;-66
2022/02/04 06:23:22;;;;;;;19.13;9.15;;;5.00;99.90;;;;;;5016283;28;20073;-65
2022/02/04 06:25:49;;;;;;;17.00;10.25;;;5.00;99.90;;;;;;5009438;28;20253;-66
2022/02/04 06:28:16;;;;;;;19.42;10.98;;;4.90;99.90;;;;;;5018281;28;20582;-65
2022/02/04 06:30:45;;;;;;;21.38;10.35;;;4.90;99.90;;;;;;5005681;28;20049;-66
2022/02/04 06:33:13;;;;;;;17.45;10.52;;;4.80;99.90;;;;;;5012583;28;20095;-65
2022/02/04 06:35:41;;;;;;;18.27;10.07;;;4.70;99.90;;;;;;5013422;28;20053;-66
2022/02/04 06:38:09;;;;;;;18.85;10.23;;;4.80;99.90;;;;;;5017287;28;20065;-66
2022/02/04 06:40:36;;;;;;;19.25;9.45;;;4.80;99.90;;;;;;4993099;28;20042;-66
2022/02/04 06:43:03;;;;;;;16.77;9.20;;;4.80;99.90;;;;;;5015932;28;20126;-66
2022/02/04 06:45:31;;;;;;;17.45;9.70;;;4.80;99.90;;;;;;5016497;28;20049;-67
2022/02/04 06:47:58;;;;;;;14.65;7.90;;;4.90;99.90;;;;;;5014606;28;20045;-66
2022/02/04 06:50:25;;;;;;;16.35;8.82;;;4.90;99.90;;;;;;5018301;28;20065;-67
2022/02/04 06:52:53;;;;;;;16.13;8.90;;;4.80;99.90;;;;;;5013059;28;20049;-67
2022/02/04 06:55:22;;;;;;;18.65;9.05;;;4.90;99.90;;;;;;5068913;28;20497;-66
2022/02/04 06:57:49;;;;;;;16.50;8.77;;;5.00;99.90;;;;;;5105045;28;20072;-66
2022/02/04 07:00:18;;;;;;;16.95;8.82;;;5.00;99.90;;;;;;5097006;28;20067;-66
2022/02/04 07:02:47;;;;;;;16.02;8.55;;;5.00;99.90;;;;;;5095419;28;20078;-66
2022/02/04 07:05:15;;;;;;;18.60;9.13;;;5.00;99.90;;;;;;5095739;28;20533;-66
2022/02/04 07:07:49;;;;;;;23.25;10.63;;;5.10;99.90;;;;;;5092515;28;20059;-67
2022/02/04 07:10:27;;;;;;;19.77;9.68;;;5.10;99.90;;;;;;5090664;28;20055;-67
2022/02/04 07:13:08;;;;;;;21.00;9.52;;;5.10;99.90;;;;;;5106344;28;20168;-67
2022/02/04 07:16:20;;;;;;;16.33;9.07;;;5.20;99.90;;;;;;5107648;28;20071;-66
2022/02/04 07:21:06;;;;;;;16.73;8.98;;;5.20;99.90;;;;;;5099595;28;20047;-66
2022/02/04 07:23:37;;;;;;;24.85;9.43;;;5.20;99.90;;;;;;5092954;28;20051;-66
2022/02/04 07:26:05;;;;;;;20.97;8.57;;;5.20;99.90;;;;;;5073877;28;20084;-66
2022/02/04 07:28:32;;;;;;;19.60;8.52;;;5.30;99.90;;;;;;5108112;28;20137;-66
2022/02/04 07:31:01;;;;;;;18.45;8.40;;;5.30;99.90;;;;;;5108391;28;20491;-67
2022/02/04 07:33:45;;;;;;;15.63;8.73;;;5.40;99.90;;;;;;5104828;28;20063;-67
2022/02/04 07:41:44;;;;;;;15.85;8.23;;;5.50;99.90;;;;;;5019915;28;20060;-68
2022/02/04 07:44:11;;;;;;;14.90;8.82;;;5.60;99.90;;;;;;5024418;28;20050;-69
2022/02/04 07:46:38;;;;;;;14.35;7.68;;;5.60;99.90;;;;;;5023407;28;20060;-69
2022/02/04 07:49:06;;;;;;;13.82;7.88;;;5.60;99.90;;;;;;5027931;28;20057;-69
2022/02/04 07:51:34;;;;;;;14.55;8.35;;;5.70;99.90;;;;;;5026536;28;20128;-70
2022/02/04 07:54:01;;;;;;;15.38;8.73;;;5.70;99.90;;;;;;4993588;28;20496;-69
2022/02/04 07:56:29;;;;;;;17.08;8.23;;;5.70;99.90;;;;;;5021413;28;20080;-70
2022/02/04 07:59:05;;;;;;;14.98;7.57;;;5.80;99.90;;;;;;5038490;28;20119;-70
2022/02/04 08:01:33;;;;;;;15.10;8.00;;;5.90;99.90;;;;;;4999115;28;20057;-70
2022/02/04 08:06:33;;;;;;;12.90;7.45;;;6.00;99.90;;;;;;5026744;28;20037;-70
2022/02/04 08:09:30;;;;;;;15.27;7.38;;;6.00;99.90;;;;;;5010435;28;20069;-70
2022/02/04 08:14:26;;;;;;;14.93;7.65;;;6.10;99.90;;;;;;5021315;28;20045;-71
2022/02/04 08:22:42;;;;;;;9.90;5.60;;;6.30;99.90;;;;;;5089193;28;20043;-70
2022/02/04 08:57:01;;;;;;;8.75;4.50;;;6.50;99.90;;;;;;5108805;28;20047;-69
2022/02/04 08:59:49;;;;;;;9.25;4.43;;;6.40;99.90;;;;;;5107872;28;20043;-69
2022/02/04 09:02:29;;;;;;;5.82;3.20;;;6.50;99.90;;;;;;5072188;28;20155;-69
2022/02/04 09:04:58;;;;;;;7.03;3.35;;;6.60;99.90;;;;;;5088590;28;20054;-69
2022/02/04 09:07:32;;;;;;;6.25;3.53;;;6.80;99.90;;;;;;5090231;28;20066;-69
2022/02/04 09:10:10;;;;;;;8.07;4.05;;;6.90;99.90;;;;;;5084066;28;20494;-69
2022/02/04 09:23:26;;;;;;;6.63;3.33;;;7.10;99.90;;;;;;5111112;28;20502;-68
2022/02/04 09:25:54;;;;;;;5.45;3.25;;;7.20;99.90;;;;;;5092296;28;20063;-69
2022/02/04 09:28:22;;;;;;;6.15;3.50;;;7.20;99.90;;;;;;5112131;28;20123;-69
2022/02/04 09:30:49;;;;;;;8.15;3.55;;;7.20;99.90;;;;;;5091529;28;20498;-69
2022/02/04 09:33:16;;;;;;;7.70;3.20;;;7.30;99.90;;;;;;5111217;28;20034;-69
2022/02/04 09:35:44;;;;;;;7.15;3.20;;;7.40;99.90;;;;;;5094194;28;20043;-69
2022/02/04 09:38:11;;;;;;;5.50;2.70;;;7.40;99.90;;;;;;5092258;28;20040;-69
2022/02/04 09:40:42;;;;;;;4.53;2.90;;;7.40;99.90;;;;;;5086784;28;20113;-70
2022/02/04 09:43:10;;;;;;;5.80;3.25;;;7.40;99.90;;;;;;5107229;28;20825;-69
2022/02/04 09:45:37;;;;;;;5.07;2.95;;;7.50;99.90;;;;;;5073944;28;20040;-68
2022/02/04 09:48:10;;;;;;;5.32;2.72;;;7.50;99.90;;;;;;5092906;28;20837;-68
2022/02/04 09:50:43;;;;;;;4.53;2.47;;;7.50;99.90;;;;;;5091233;28;20047;-71
2022/02/04 10:17:41;;;;;;;8.45;3.03;;;7.20;99.90;;;;;;5094678;28;20052;-68
2022/02/04 10:20:13;;;;;;;7.07;2.58;;;7.20;99.90;;;;;;5093763;28;20121;-69
2022/02/04 10:22:48;;;;;;;6.18;3.30;;;7.20;99.90;;;;;;5099437;28;20505;-69
2022/02/04 10:25:16;;;;;;;5.85;3.30;;;7.30;99.90;;;;;;5066323;28;20358;-69
2022/02/04 10:28:05;;;;;;;5.28;2.75;;;7.20;99.90;;;;;;5094067;28;20043;-69
2022/02/04 10:30:33;;;;;;;5.18;3.13;;;7.40;99.90;;;;;;5071900;27;20858;-69
2022/02/04 10:33:01;;;;;;;5.00;2.58;;;7.50;99.90;;;;;;5093345;28;20114;-69
2022/02/04 10:35:34;;;;;;;4.72;2.72;;;7.60;99.90;;;;;;5103254;28;20040;-69
2022/02/04 10:38:20;;;;;;;6.13;2.38;;;7.90;99.90;;;;;;5071087;28;20047;-69
2022/02/04 10:41:13;;;;;;;3.90;2.20;;;8.00;99.90;;;;;;5111667;27;20046;-69
2022/02/04 10:44:04;;;;;;;4.07;2.17;;;8.20;99.90;;;;;;5108932;28;20039;-68
2022/02/04 10:46:39;;;;;;;3.83;2.00;;;8.30;99.90;;;;;;5079870;28;20490;-70
2022/02/04 10:52:05;;;;;;;3.45;1.73;;;8.70;99.90;;;;;;5110562;28;20058;-70
2022/02/04 10:55:19;;;;;;;4.78;1.80;;;8.80;99.90;;;;;;5094049;28;20106;-69
2022/02/04 11:05:19;;;;;;;4.30;1.92;;;8.90;99.90;;;;;;5076056;28;20074;-70
2022/02/04 11:35:38;;;;;;;5.63;2.20;;;8.50;99.90;;;;;;5108607;28;20090;-68
2022/02/04 11:52:25;;;;;;;3.10;1.40;;;7.70;99.90;;;;;;5090012;28;20047;-70
2022/02/04 11:54:54;;;;;;;4.20;1.40;;;7.60;99.90;;;;;;5091615;28;20470;-68
2022/02/04 11:57:27;;;;;;;3.33;1.42;;;7.50;99.90;;;;;;5109426;28;20035;-69
2022/02/04 11:59:59;;;;;;;2.85;1.38;;;7.50;99.90;;;;;;5092644;28;20051;-69
2022/02/04 12:02:33;;;;;;;4.00;1.30;;;7.60;99.90;;;;;;5085575;28;20139;-70
2022/02/04 12:05:11;;;;;;;2.63;1.38;;;7.50;99.90;;;;;;5100244;28;20083;-69
2022/02/04 12:08:02;;;;;;;6.03;1.50;;;7.50;99.90;;;;;;5077873;28;20100;-69
2022/02/04 12:10:32;;;;;;;3.58;1.40;;;7.50;99.90;;;;;;5085812;28;20084;-70
2022/02/04 12:13:07;;;;;;;2.22;1.30;;;7.50;99.90;;;;;;5109891;28;20374;-68
2022/02/04 12:16:06;;;;;;;2.92;1.50;;;7.40;99.90;;;;;;5101723;28;20350;-68
2022/02/04 12:18:39;;;;;;;3.20;1.50;;;7.30;99.90;;;;;;5100687;28;20123;-70
2022/02/04 12:21:07;;;;;;;4.45;1.45;;;7.30;99.90;;;;;;5088815;28;20040;-68
2022/02/04 12:23:43;;;;;;;3.13;1.60;;;7.20;99.90;;;;;;5106585;28;20071;-70
2022/02/04 12:26:12;;;;;;;4.82;1.40;;;7.30;99.90;;;;;;5095521;28;20032;-70
2022/02/04 12:29:05;;;;;;;5.45;1.45;;;7.40;99.90;;;;;;5107369;28;20111;-69
2022/02/04 12:31:44;;;;;;;3.22;1.55;;;7.30;99.90;;;;;;5107971;28;20047;-68
2022/02/04 12:34:19;;;;;;;3.10;1.58;;;7.30;99.90;;;;;;5111156;28;20519;-69
2022/02/04 12:36:47;;;;;;;2.83;1.40;;;7.40;99.90;;;;;;5096583;28;20054;-69
2022/02/04 12:39:20;;;;;;;5.22;1.42;;;7.50;99.90;;;;;;5085336;28;20511;-70
2022/02/04 12:41:50;;;;;;;4.20;1.40;;;7.60;99.90;;;;;;5079868;28;20062;-68
2022/02/04 12:44:19;;;;;;;2.67;1.27;;;7.60;99.90;;;;;;5089587;28;20040;-70
2022/02/04 12:46:50;;;;;;;3.38;1.30;;;7.60;99.90;;;;;;5111747;28;20112;-69
2022/02/04 12:49:26;;;;;;;2.47;1.30;;;7.50;99.90;;;;;;5078304;28;20378;-67
2022/02/04 12:54:48;;;;;;;2.97;1.30;;;7.50;99.90;;;;;;5089404;28;20047;-69
2022/02/04 12:57:31;;;;;;;5.43;2.20;;;7.40;99.90;;;;;;5066096;28;20502;-68
2022/02/04 13:07:58;;;;;;;2.90;1.00;;;7.20;99.90;;;;;;5088769;28;20036;-70
2022/02/04 13:11:01;;;;;;;1.55;1.00;;;7.20;99.90;;;;;;5111035;28;20039;-68
2022/02/04 13:13:44;;;;;;;1.80;0.80;;;7.30;99.90;;;;;;5095160;28;20193;-69
2022/02/04 13:16:23;;;;;;;2.17;0.93;;;7.40;99.90;;;;;;5093156;28;20040;-70
2022/02/04 13:18:52;;;;;;;1.85;0.90;;;7.50;99.90;;;;;;5104520;28;20127;-70
2022/02/04 13:21:20;;;;;;;3.67;1.00;;;7.70;99.90;;;;;;5105225;28;20044;-68
2022/02/04 13:23:48;;;;;;;3.65;1.17;;;7.80;99.90;;;;;;5093591;28;20402;-69
2022/02/04 13:26:21;;;;;;;2.10;0.90;;;7.90;99.90;;;;;;5111459;28;20421;-69
2022/02/04 13:28:56;;;;;;;1.63;0.90;;;7.80;99.90;;;;;;5093764;28;20366;-68
2022/02/04 13:31:25;;;;;;;7.97;0.98;;;7.80;99.90;;;;;;5109748;28;20063;-70
2022/02/04 13:33:56;;;;;;;2.03;0.98;;;7.70;99.90;;;;;;5077952;28;20456;-68
2022/02/04 13:36:42;;;;;;;1.90;0.80;;;7.70;99.90;;;;;;5111191;28;20104;-70
2022/02/04 13:39:49;;;;;;;2.42;1.00;;;7.70;99.90;;;;;;5109534;28;20039;-70
2022/02/04 13:42:33;;;;;;;3.85;1.00;;;7.70;99.90;;;;;;5112975;28;20040;-70
2022/02/04 13:45:11;;;;;;;2.40;1.10;;;7.70;99.90;;;;;;5112401;28;20130;-70
2022/02/04 13:47:49;;;;;;;4.20;0.90;;;7.70;99.90;;;;;;5102050;28;20516;-68
2022/02/04 13:53:35;;;;;;;3.05;0.88;;;7.80;99.90;;;;;;5106451;28;20082;-70
2022/02/04 13:56:18;;;;;;;1.88;0.90;;;7.80;99.90;;;;;;5085076;28;20043;-70
2022/02/04 13:58:54;;;;;;;1.50;0.85;;;7.90;99.90;;;;;;5088948;28;20395;-69
2022/02/04 14:01:34;;;;;;;1.88;0.90;;;8.00;99.90;;;;;;5106759;28;20052;-69
2022/02/04 14:04:03;;;;;;;1.80;0.90;;;7.90;99.90;;;;;;5106535;28;20531;-68
2022/02/04 14:06:32;;;;;;;1.80;1.00;;;7.70;99.90;;;;;;5083745;28;20048;-70
2022/02/04 14:09:17;;;;;;;1.35;0.90;;;7.70;99.90;;;;;;5103602;28;20413;-69
2022/02/04 14:11:45;;;;;;;2.25;1.17;;;7.70;99.90;;;;;;5107347;28;20101;-69
2022/02/04 14:14:21;;;;;;;2.53;1.20;;;7.60;99.90;;;;;;5097358;28;20039;-69
2022/02/04 14:17:01;;;;;;;6.03;1.10;;;7.60;99.90;;;;;;5103040;28;20561;-69
2022/02/04 14:19:28;;;;;;;2.13;1.02;;;7.50;99.90;;;;;;5083209;28;20141;-69
2022/02/04 14:21:57;;;;;;;2.30;0.90;;;7.50;99.90;;;;;;5086169;28;20382;-70
2022/02/04 14:24:26;;;;;;;1.63;0.90;;;7.50;99.90;;;;;;5100736;28;20906;-69
2022/02/04 14:26:55;;;;;;;2.05;1.20;;;7.50;99.90;;;;;;5089644;28;20048;-68
2022/02/04 14:29:40;;;;;;;2.38;1.08;;;7.50;99.90;;;;;;5108700;28;20046;-69
2022/02/04 14:32:18;;;;;;;1.73;1.00;;;7.50;99.90;;;;;;5110681;28;20047;-70
2022/02/04 14:34:59;;;;;;;5.35;1.10;;;7.50;99.90;;;;;;5076058;28;20052;-70
2022/02/04 14:37:51;;;;;;;4.00;1.50;;;7.40;99.90;;;;;;5111834;28;20050;-71
2022/02/04 14:54:08;;;;;;;2.63;1.17;;;7.20;99.90;;;;;;5090161;28;20443;-70
2022/02/04 15:02:11;;;;;;;1.55;0.98;;;7.20;99.90;;;;;;5106354;28;20047;-70
2022/02/04 15:07:07;;;;;;;3.15;1.10;;;7.20;99.90;;;;;;5108019;28;20498;-69
2022/02/04 15:09:38;;;;;;;2.30;1.00;;;7.20;99.90;;;;;;5109071;28;20130;-70
2022/02/04 15:12:06;;;;;;;2.38;1.00;;;7.30;99.90;;;;;;5109858;28;20423;-70
2022/02/04 15:14:33;;;;;;;2.95;1.02;;;7.20;99.90;;;;;;5091700;28;20035;-70
2022/02/04 15:17:00;;;;;;;2.72;1.33;;;7.20;99.90;;;;;;5108913;28;20039;-70
2022/02/04 15:19:32;;;;;;;2.65;1.25;;;7.20;99.90;;;;;;5091223;28;20517;-69
2022/02/04 15:22:03;;;;;;;2.95;1.10;;;7.20;99.90;;;;;;5090940;28;20051;-70
2022/02/04 15:24:30;;;;;;;3.55;1.20;;;7.20;99.90;;;;;;5108770;28;20055;-68
2022/02/04 15:26:59;;;;;;;3.20;1.50;;;7.20;99.90;;;;;;5065153;28;20075;-69
2022/02/04 15:29:29;;;;;;;2.22;1.10;;;7.20;99.90;;;;;;5104406;28;20417;-70
2022/02/04 15:31:59;;;;;;;3.03;1.30;;;7.20;99.90;;;;;;5094380;28;20056;-69
2022/02/04 15:34:26;;;;;;;2.95;1.27;;;7.20;99.90;;;;;;5087555;28;20450;-69
2022/02/04 15:36:55;;;;;;;3.10;1.40;;;7.10;99.90;;;;;;5110259;28;20054;-69
2022/02/04 15:39:29;;;;;;;2.95;1.77;;;7.10;99.90;;;;;;5110127;28;20043;-70
2022/02/04 15:42:03;;;;;;;4.00;1.70;;;7.10;99.90;;;;;;5103648;28;20551;-69
2022/02/04 15:50:04;;;;;;;2.85;1.48;;;7.10;99.90;;;;;;5109321;28;20040;-70
2022/02/04 15:52:53;;;;;;;4.05;1.52;;;7.10;99.90;;;;;;5109967;28;20047;-70
2022/02/04 15:55:32;;;;;;;3.15;1.55;;;7.20;99.90;;;;;;5094171;28;20036;-70
2022/02/04 16:05:52;;;;;;;3.45;1.65;;;7.10;99.90;;;;;;5105267;28;20498;-69
2022/02/04 16:08:21;;;;;;;4.75;1.42;;;7.10;99.90;;;;;;5092753;28;20557;-69
2022/02/04 16:11:01;;;;;;;3.58;1.60;;;7.10;99.90;;;;;;5074360;28;20044;-69
2022/02/04 16:18:56;;;;;;;3.72;1.60;;;7.00;99.90;;;;;;5092898;28;20505;-68
2022/02/04 16:21:38;;;;;;;3.92;1.50;;;7.10;99.90;;;;;;5094836;28;20047;-70
2022/02/04 16:27:09;;;;;;;2.88;1.52;;;7.00;99.90;;;;;;5094005;28;20058;-69
2022/02/04 16:29:43;;;;;;;3.45;1.80;;;7.00;99.90;;;;;;5076616;28;20047;-69
2022/02/04 16:32:13;;;;;;;3.17;1.75;;;7.00;99.90;;;;;;5087378;28;20047;-68
2022/02/04 16:34:42;;;;;;;3.63;1.83;;;7.10;99.90;;;;;;5074715;28;20501;-68
2022/02/04 16:37:18;;;;;;;3.22;1.70;;;7.00;99.90;;;;;;5110430;28;20066;-68
2022/02/04 16:39:47;;;;;;;4.07;1.70;;;7.00;99.90;;;;;;5084265;28;20051;-69
2022/02/04 16:42:16;;;;;;;3.88;1.98;;;7.00;99.90;;;;;;5093288;28;20054;-69
2022/02/04 16:44:44;;;;;;;3.05;1.60;;;7.00;99.90;;;;;;5075230;28;20055;-68
2022/02/04 16:47:15;;;;;;;3.78;1.80;;;7.00;99.90;;;;;;5090911;28;20047;-70
2022/02/04 16:49:42;;;;;;;4.20;2.00;;;7.00;99.90;;;;;;5108759;28;20483;-69
2022/02/04 16:52:10;;;;;;;4.13;2.00;;;6.90;99.90;;;;;;5109299;28;20040;-68
2022/02/04 16:54:38;;;;;;;3.53;1.85;;;7.00;99.90;;;;;;5109349;28;20046;-70
2022/02/04 16:57:06;;;;;;;3.47;2.03;;;7.00;99.90;;;;;;5099167;28;20101;-69
2022/02/04 16:59:35;;;;;;;3.42;1.65;;;6.90;99.90;;;;;;5072377;28;20070;-69
2022/02/04 17:02:03;;;;;;;3.78;1.70;;;7.00;99.90;;;;;;5095898;28;20031;-69
2022/02/04 17:04:30;;;;;;;6.15;2.47;;;6.90;99.90;;;;;;5091563;28;20494;-69
2022/02/04 17:07:05;;;;;;;4.45;1.90;;;7.00;99.90;;;;;;5091445;28;20040;-70
2022/02/04 17:09:37;;;;;;;4.07;1.60;;;6.90;99.90;;;;;;5103858;28;20497;-70
2022/02/04 17:12:08;;;;;;;3.25;1.67;;;6.90;99.90;;;;;;5087242;28;20048;-70
2022/02/04 17:14:36;;;;;;;3.20;1.67;;;7.00;99.90;;;;;;5103441;28;20036;-70
2022/02/04 17:17:05;;;;;;;3.30;1.85;;;6.90;99.90;;;;;;5101128;28;20581;-70
2022/02/04 17:19:42;;;;;;;2.90;1.67;;;6.90;99.90;;;;;;5100347;28;20035;-69
2022/02/04 17:22:12;;;;;;;2.90;1.70;;;7.00;99.90;;;;;;5101316;28;20467;-68
2022/02/04 17:24:39;;;;;;;3.10;1.83;;;6.90;99.90;;;;;;5109706;28;20513;-70
2022/02/04 17:27:07;;;;;;;2.95;1.45;;;7.00;99.90;;;;;;5100732;28;20043;-70
2022/02/04 17:29:35;;;;;;;4.03;1.80;;;6.90;99.90;;;;;;5105698;28;20540;-70
2022/02/04 17:32:03;;;;;;;4.45;1.92;;;7.00;99.90;;;;;;5095379;28;20043;-69
2022/02/04 17:34:30;;;;;;;3.58;1.90;;;6.90;99.90;;;;;;5097684;28;20829;-70
2022/02/04 17:36:58;;;;;;;3.28;1.60;;;6.90;99.90;;;;;;5081181;28;20048;-70
2022/02/04 17:39:27;;;;;;;3.97;1.50;;;6.90;99.90;;;;;;5097967;28;20046;-70
2022/02/04 17:41:57;;;;;;;3.40;1.80;;;6.90;99.90;;;;;;5103076;28;20038;-71
2022/02/04 17:44:26;;;;;;;3.88;1.30;;;6.90;99.90;;;;;;5089414;28;20052;-69
2022/02/04 17:46:53;;;;;;;3.15;1.60;;;6.90;99.90;;;;;;5109208;28;20048;-69
2022/02/04 17:49:29;;;;;;;3.22;1.80;;;6.90;99.90;;;;;;5108157;28;20039;-69
2022/02/04 17:52:15;;;;;;;6.88;1.88;;;6.90;99.90;;;;;;5108294;28;20051;-70
2022/02/04 17:54:53;;;;;;;3.90;1.77;;;6.90;99.90;;;;;;5103542;28;20044;-69
2022/02/04 17:57:48;;;;;;;2.70;1.40;;;6.90;99.90;;;;;;5108515;28;20036;-69
2022/02/04 18:03:30;;;;;;;5.88;1.70;;;7.00;99.90;;;;;;5109286;28;20039;-71
2022/02/04 18:06:04;;;;;;;6.15;2.00;;;6.80;99.90;;;;;;5108325;28;20479;-70
2022/02/04 18:08:31;;;;;;;3.35;1.60;;;6.90;99.90;;;;;;5086826;28;20498;-70
2022/02/04 18:11:01;;;;;;;3.38;1.50;;;6.80;99.90;;;;;;5108589;28;20062;-69
2022/02/04 18:13:28;;;;;;;5.25;1.90;;;6.80;99.90;;;;;;5075064;28;20048;-68
2022/02/04 18:15:55;;;;;;;2.97;1.50;;;6.80;99.90;;;;;;5077111;28;20070;-70
2022/02/04 18:18:24;;;;;;;4.15;1.73;;;6.80;99.90;;;;;;5101307;28;20529;-70
2022/02/04 18:20:52;;;;;;;3.35;1.77;;;6.70;99.90;;;;;;5089209;28;20043;-70
2022/02/04 18:23:22;;;;;;;3.80;1.58;;;6.70;99.90;;;;;;5076261;28;20059;-70
2022/02/04 18:25:51;;;;;;;4.57;1.65;;;6.80;99.90;;;;;;5097465;28;20490;-69
2022/02/04 18:28:20;;;;;;;4.63;1.88;;;6.80;99.90;;;;;;5102141;28;20390;-70
2022/02/04 18:30:49;;;;;;;3.92;1.50;;;6.70;99.90;;;;;;5078321;28;20056;-70
2022/02/04 18:33:17;;;;;;;4.63;1.88;;;6.60;99.90;;;;;;5095754;28;20052;-69
2022/02/04 18:35:50;;;;;;;3.25;1.63;;;6.60;99.90;;;;;;5099122;28;20131;-69
2022/02/04 18:38:28;;;;;;;3.28;1.38;;;6.60;99.90;;;;;;5100782;28;20150;-70
2022/02/04 18:46:06;;;;;;;6.00;2.63;;;6.60;99.90;;;;;;5095493;28;20074;-69
2022/02/04 18:48:48;;;;;;;4.60;2.20;;;6.60;99.90;;;;;;5088243;28;20036;-69
2022/02/04 18:51:42;;;;;;;3.75;1.83;;;6.60;99.90;;;;;;5080455;28;20043;-69
2022/02/04 18:59:25;;;;;;;3.75;2.13;;;6.70;99.90;;;;;;5111766;28;20411;-69
2022/02/04 19:01:53;;;;;;;5.10;1.60;;;6.70;99.90;;;;;;5092216;28;20863;-68
2022/02/04 19:04:28;;;;;;;3.83;2.20;;;6.60;99.90;;;;;;5093178;28;20050;-69
2022/02/04 19:07:04;;;;;;;3.78;1.95;;;6.70;99.90;;;;;;5112393;28;20044;-68
2022/02/04 19:09:32;;;;;;;4.10;2.00;;;6.70;99.90;;;;;;5112016;28;20039;-69
2022/02/04 19:12:08;;;;;;;5.35;2.00;;;6.70;99.90;;;;;;5109345;28;20116;-68
2022/02/04 19:15:07;;;;;;;4.35;2.22;;;6.70;99.90;;;;;;5098013;28;20032;-68
2022/02/04 19:17:43;;;;;;;6.18;1.95;;;6.70;99.90;;;;;;5112311;28;20040;-70
2022/02/04 19:20:23;;;;;;;5.40;2.50;;;6.70;99.90;;;;;;5110259;28;20043;-70